sensor_id;sensor_type;location;lat;lon;timestamp;pressure;altitude;pressure_sealevel;temperature;humidity
44453;BME280;30155;52.164;21.236;2022-10-31T00:00:58;100897.61;;;7.27;81.51
44453;BME280;30155;52.164;21.236;2022-10-31T00:05:50;100910.37;;;7.22;81.50
44453;BME280;30155;52.164;21.236;2022-10-31T00:10:44;100908.52;;;7.18;81.58
44453;BME280;30155;52.164;21.236;2022-10-31T00:20:47;100914.98;;;7.05;81.63
44453;BME280;30155;52.164;21.236;2022-10-31T00:25:39;100912.65;;;7.00;81.63
44453;BME280;30155;52.164;21.236;2022-10-31T00:30:31;100918.19;;;6.98;81.80
44453;BME280;30155;52.164;21.236;2022-10-31T00:35:23;100918.06;;;6.95;81.91
44453;BME280;30155;52.164;21.236;2022-10-31T00:40:15;100915.00;;;6.94;82.11
44453;BME280;30155;52.164;21.236;2022-10-31T00:45:10;100914.92;;;6.91;81.98
44453;BME280;30155;52.164;21.236;2022-10-31T00:50:03;100914.69;;;6.84;81.77
44453;BME280;30155;52.164;21.236;2022-10-31T00:54:56;100912.34;;;6.79;81.67
44453;BME280;30155;52.164;21.236;2022-10-31T00:59:47;100914.73;;;6.73;81.76
44453;BME280;30155;52.164;21.236;2022-10-31T01:04:41;100927.47;;;6.68;81.56
44453;BME280;30155;52.164;21.236;2022-10-31T01:09:32;100931.08;;;6.61;81.70
44453;BME280;30155;52.164;21.236;2022-10-31T01:14:24;100933.90;;;6.56;81.77
44453;BME280;30155;52.164;21.236;2022-10-31T01:19:15;100933.90;;;6.56;81.96
44453;BME280;30155;52.164;21.236;2022-10-31T01:24:08;100934.98;;;6.49;81.59
44453;BME280;30155;52.164;21.236;2022-10-31T01:29:07;100937.80;;;6.44;81.71
44453;BME280;30155;52.164;21.236;2022-10-31T01:33:59;100936.74;;;6.39;81.80
44453;BME280;30155;52.164;21.236;2022-10-31T01:38:53;100928.42;;;6.35;81.71
44453;BME280;30155;52.164;21.236;2022-10-31T01:48:57;100933.19;;;6.24;81.64
44453;BME280;30155;52.164;21.236;2022-10-31T01:53:51;100943.67;;;6.18;81.72
44453;BME280;30155;52.164;21.236;2022-10-31T01:58:46;100942.68;;;6.14;81.79
44453;BME280;30155;52.164;21.236;2022-10-31T02:03:40;100949.36;;;6.09;81.62
44453;BME280;30155;52.164;21.236;2022-10-31T02:08:33;100939.69;;;6.03;81.75
44453;BME280;30155;52.164;21.236;2022-10-31T02:13:28;100946.07;;;6.02;81.80
44453;BME280;30155;52.164;21.236;2022-10-31T02:18:22;100938.45;;;5.95;81.91
44453;BME280;30155;52.164;21.236;2022-10-31T02:34:48;100945.84;;;5.86;82.10
44453;BME280;30155;52.164;21.236;2022-10-31T02:39:21;100944.42;;;5.83;81.94
44453;BME280;30155;52.164;21.236;2022-10-31T02:44:36;100945.61;;;5.80;81.86
44453;BME280;30155;52.164;21.236;2022-10-31T02:49:42;100944.61;;;5.76;82.06
44453;BME280;30155;52.164;21.236;2022-10-31T02:54:42;100950.06;;;5.72;82.13
44453;BME280;30155;52.164;21.236;2022-10-31T02:59:36;100944.70;;;5.68;82.02
44453;BME280;30155;52.164;21.236;2022-10-31T03:15:33;100947.43;;;5.61;82.17
44453;BME280;30155;52.164;21.236;2022-10-31T03:20:29;100955.39;;;5.56;81.98
44453;BME280;30155;52.164;21.236;2022-10-31T03:25:24;100954.80;;;5.52;82.19
44453;BME280;30155;52.164;21.236;2022-10-31T03:30:18;100969.33;;;5.50;82.16
44453;BME280;30155;52.164;21.236;2022-10-31T03:35:20;100968.39;;;5.48;82.04
44453;BME280;30155;52.164;21.236;2022-10-31T03:40:15;100976.13;;;5.48;82.19
44453;BME280;30155;52.164;21.236;2022-10-31T03:45:15;100972.82;;;5.41;82.00
44453;BME280;30155;52.164;21.236;2022-10-31T03:50:15;100979.41;;;5.44;82.75
44453;BME280;30155;52.164;21.236;2022-10-31T03:55:24;100985.23;;;5.49;82.67
44453;BME280;30155;52.164;21.236;2022-10-31T04:00:16;100990.31;;;5.48;82.55
44453;BME280;30155;52.164;21.236;2022-10-31T04:05:13;100987.73;;;5.48;82.67
44453;BME280;30155;52.164;21.236;2022-10-31T04:10:08;100985.61;;;5.49;82.80
44453;BME280;30155;52.164;21.236;2022-10-31T04:15:02;100985.33;;;5.52;83.12
44453;BME280;30155;52.164;21.236;2022-10-31T04:19:55;100991.84;;;5.54;83.10
44453;BME280;30155;52.164;21.236;2022-10-31T04:24:48;100993.03;;;5.51;82.85
44453;BME280;30155;52.164;21.236;2022-10-31T04:29:40;100987.73;;;5.48;82.99
44453;BME280;30155;52.164;21.236;2022-10-31T04:34:32;100989.37;;;5.46;83.11
44453;BME280;30155;52.164;21.236;2022-10-31T04:39:28;100991.47;;;5.45;83.21
44453;BME280;30155;52.164;21.236;2022-10-31T04:44:24;100994.88;;;5.44;83.03
44453;BME280;30155;52.164;21.236;2022-10-31T04:49:17;101000.56;;;5.46;83.24
44453;BME280;30155;52.164;21.236;2022-10-31T04:54:08;100999.55;;;5.43;83.11
44453;BME280;30155;52.164;21.236;2022-10-31T04:59:18;101003.28;;;5.40;82.99
44453;BME280;30155;52.164;21.236;2022-10-31T05:04:14;101000.59;;;5.37;83.29
44453;BME280;30155;52.164;21.236;2022-10-31T05:09:05;101013.88;;;5.36;83.35
44453;BME280;30155;52.164;21.236;2022-10-31T05:13:57;101005.61;;;5.33;83.11
44453;BME280;30155;52.164;21.236;2022-10-31T05:18:53;101011.39;;;5.28;83.30
44453;BME280;30155;52.164;21.236;2022-10-31T05:23:53;101019.20;;;5.29;83.29
44453;BME280;30155;52.164;21.236;2022-10-31T05:28:46;101020.55;;;5.21;83.06
44453;BME280;30155;52.164;21.236;2022-10-31T05:33:38;101023.81;;;5.17;83.07
44453;BME280;30155;52.164;21.236;2022-10-31T05:38:50;101022.73;;;5.12;83.26
44453;BME280;30155;52.164;21.236;2022-10-31T05:43:43;101025.42;;;5.15;83.42
44453;BME280;30155;52.164;21.236;2022-10-31T05:48:34;101029.28;;;5.15;83.33
44453;BME280;30155;52.164;21.236;2022-10-31T05:53:46;101034.13;;;5.17;83.33
44453;BME280;30155;52.164;21.236;2022-10-31T05:58:38;101035.94;;;5.20;83.24
44453;BME280;30155;52.164;21.236;2022-10-31T06:03:32;101041.17;;;5.21;83.20
44453;BME280;30155;52.164;21.236;2022-10-31T06:08:25;101042.19;;;5.25;83.34
44453;BME280;30155;52.164;21.236;2022-10-31T06:13:17;101040.63;;;5.28;83.23
44453;BME280;30155;52.164;21.236;2022-10-31T06:18:10;101042.66;;;5.35;83.44
44453;BME280;30155;52.164;21.236;2022-10-31T06:23:12;101042.45;;;5.41;83.40
44453;BME280;30155;52.164;21.236;2022-10-31T06:28:09;101039.66;;;5.46;83.34
44453;BME280;30155;52.164;21.236;2022-10-31T06:33:04;101032.94;;;5.49;83.31
44453;BME280;30155;52.164;21.236;2022-10-31T06:37:58;101040.85;;;5.54;83.32
44453;BME280;30155;52.164;21.236;2022-10-31T06:43:00;101034.13;;;5.58;83.28
44453;BME280;30155;52.164;21.236;2022-10-31T06:47:51;101046.39;;;5.63;83.40
44453;BME280;30155;52.164;21.236;2022-10-31T06:52:56;101053.64;;;5.72;83.47
44453;BME280;30155;52.164;21.236;2022-10-31T06:57:50;101062.91;;;5.88;83.44
44453;BME280;30155;52.164;21.236;2022-10-31T07:02:58;101070.91;;;6.04;83.30
44453;BME280;30155;52.164;21.236;2022-10-31T07:07:59;101059.66;;;6.13;83.31
44453;BME280;30155;52.164;21.236;2022-10-31T07:13:00;101058.45;;;6.26;83.40
44453;BME280;30155;52.164;21.236;2022-10-31T07:17:59;101055.55;;;6.39;83.33
44453;BME280;30155;52.164;21.236;2022-10-31T07:22:54;101059.78;;;6.48;83.45
44453;BME280;30155;52.164;21.236;2022-10-31T07:27:48;101060.56;;;6.80;83.77
44453;BME280;30155;52.164;21.236;2022-10-31T07:32:44;101060.56;;;6.80;83.77
44453;BME280;30155;52.164;21.236;2022-10-31T07:37:38;101062.05;;;6.97;83.94
44453;BME280;30155;52.164;21.236;2022-10-31T07:42:35;101062.05;;;6.97;83.94
44453;BME280;30155;52.164;21.236;2022-10-31T07:47:27;101068.79;;;7.16;84.29
44453;BME280;30155;52.164;21.236;2022-10-31T07:52:35;101068.39;;;7.30;84.47
44453;BME280;30155;52.164;21.236;2022-10-31T07:57:29;101061.14;;;7.56;84.46
44453;BME280;30155;52.164;21.236;2022-10-31T08:02:21;101060.02;;;7.74;84.83
44453;BME280;30155;52.164;21.236;2022-10-31T08:07:12;101064.06;;;7.91;85.20
44453;BME280;30155;52.164;21.236;2022-10-31T08:12:04;101062.91;;;8.09;85.13
44453;BME280;30155;52.164;21.236;2022-10-31T08:16:57;101057.94;;;8.29;85.29
44453;BME280;30155;52.164;21.236;2022-10-31T08:21:52;101054.37;;;8.51;85.58
44453;BME280;30155;52.164;21.236;2022-10-31T08:27:11;101067.55;;;8.73;85.81
44453;BME280;30155;52.164;21.236;2022-10-31T08:32:06;101051.23;;;8.92;86.25
44453;BME280;30155;52.164;21.236;2022-10-31T08:37:13;101071.36;;;9.31;86.74
44453;BME280;30155;52.164;21.236;2022-10-31T08:42:08;101067.08;;;9.65;86.74
44453;BME280;30155;52.164;21.236;2022-10-31T08:46:59;101065.68;;;11.08;84.81
44453;BME280;30155;52.164;21.236;2022-10-31T08:51:50;101074.89;;;11.58;83.41
44453;BME280;30155;52.164;21.236;2022-10-31T09:02:22;101081.22;;;12.21;83.28
44453;BME280;30155;52.164;21.236;2022-10-31T09:14:03;101075.67;;;13.23;81.44
44453;BME280;30155;52.164;21.236;2022-10-31T09:19:22;101073.25;;;14.32;80.08
44453;BME280;30155;52.164;21.236;2022-10-31T09:24:26;101066.42;;;15.42;78.22
44453;BME280;30155;52.164;21.236;2022-10-31T09:29:18;101067.73;;;15.50;77.39
44453;BME280;30155;52.164;21.236;2022-10-31T09:34:12;101070.87;;;15.79;75.85
44453;BME280;30155;52.164;21.236;2022-10-31T09:39:07;101070.47;;;15.81;76.13
44453;BME280;30155;52.164;21.236;2022-10-31T09:44:24;101075.18;;;15.55;75.89
44453;BME280;30155;52.164;21.236;2022-10-31T09:54:56;101075.25;;;16.32;75.04
44453;BME280;30155;52.164;21.236;2022-10-31T10:00:20;101073.41;;;16.81;74.34
44453;BME280;30155;52.164;21.236;2022-10-31T10:22:46;101063.47;;;18.18;70.63
44453;BME280;30155;52.164;21.236;2022-10-31T10:27:51;101062.25;;;18.07;69.80
44453;BME280;30155;52.164;21.236;2022-10-31T10:32:47;101058.09;;;18.30;69.13
44453;BME280;30155;52.164;21.236;2022-10-31T10:37:44;101057.62;;;18.76;68.40
44453;BME280;30155;52.164;21.236;2022-10-31T10:42:37;101039.70;;;19.39;67.87
44453;BME280;30155;52.164;21.236;2022-10-31T10:47:52;101041.07;;;20.21;65.97
44453;BME280;30155;52.164;21.236;2022-10-31T10:58:55;101038.59;;;20.36;65.62
44453;BME280;30155;52.164;21.236;2022-10-31T11:09:27;101036.30;;;21.50;64.19
44453;BME280;30155;52.164;21.236;2022-10-31T11:14:22;101038.43;;;21.89;62.64
44453;BME280;30155;52.164;21.236;2022-10-31T11:19:45;101039.98;;;21.98;62.14
44453;BME280;30155;52.164;21.236;2022-10-31T11:24:42;101036.23;;;22.41;61.50
44453;BME280;30155;52.164;21.236;2022-10-31T11:29:34;101026.52;;;22.88;60.30
44453;BME280;30155;52.164;21.236;2022-10-31T11:34:46;101033.85;;;22.95;60.32
44453;BME280;30155;52.164;21.236;2022-10-31T11:39:42;101022.55;;;22.73;60.54
44453;BME280;30155;52.164;21.236;2022-10-31T11:44:36;101028.20;;;21.92;60.76
44453;BME280;30155;52.164;21.236;2022-10-31T11:54:53;101022.18;;;20.67;62.36
44453;BME280;30155;52.164;21.236;2022-10-31T11:59:56;101028.83;;;20.15;63.00
44453;BME280;30155;52.164;21.236;2022-10-31T12:05:08;101022.52;;;19.71;63.43
44453;BME280;30155;52.164;21.236;2022-10-31T13:12:54;101005.02;;;17.76;68.02
44453;BME280;30155;52.164;21.236;2022-10-31T13:42:18;101001.77;;;16.45;70.42
44453;BME280;30155;52.164;21.236;2022-10-31T13:52:24;101007.52;;;15.96;71.34
44453;BME280;30155;52.164;21.236;2022-10-31T13:57:32;101012.31;;;15.71;71.54
44453;BME280;30155;52.164;21.236;2022-10-31T14:02:48;101011.85;;;15.51;72.18
44453;BME280;30155;52.164;21.236;2022-10-31T14:07:47;101009.63;;;15.34;72.72
44453;BME280;30155;52.164;21.236;2022-10-31T14:12:41;101003.91;;;15.14;73.14
44453;BME280;30155;52.164;21.236;2022-10-31T14:17:38;101005.19;;;14.99;73.47
44453;BME280;30155;52.164;21.236;2022-10-31T14:22:33;101001.62;;;14.81;74.00
44453;BME280;30155;52.164;21.236;2022-10-31T14:32:25;101000.55;;;14.48;74.89
44453;BME280;30155;52.164;21.236;2022-10-31T14:43:19;101003.84;;;14.14;75.60
44453;BME280;30155;52.164;21.236;2022-10-31T14:53:54;101004.35;;;13.69;76.34
44453;BME280;30155;52.164;21.236;2022-10-31T14:58:47;101009.38;;;13.48;76.84
44453;BME280;30155;52.164;21.236;2022-10-31T15:03:42;101006.17;;;13.31;77.06
44453;BME280;30155;52.164;21.236;2022-10-31T15:08:43;101005.10;;;13.15;77.28
44453;BME280;30155;52.164;21.236;2022-10-31T15:19:09;101016.47;;;12.83;77.90
44453;BME280;30155;52.164;21.236;2022-10-31T15:24:39;101019.80;;;12.70;78.23
44453;BME280;30155;52.164;21.236;2022-10-31T15:29:53;101028.24;;;12.53;78.33
44453;BME280;30155;52.164;21.236;2022-10-31T15:34:45;101030.59;;;12.35;78.30
44453;BME280;30155;52.164;21.236;2022-10-31T15:39:36;101036.91;;;12.21;78.48
44453;BME280;30155;52.164;21.236;2022-10-31T15:44:30;101038.39;;;12.05;78.79
44453;BME280;30155;52.164;21.236;2022-10-31T15:49:48;101026.86;;;11.91;78.99
44453;BME280;30155;52.164;21.236;2022-10-31T15:54:57;101026.63;;;11.78;78.99
44453;BME280;30155;52.164;21.236;2022-10-31T16:05:50;101038.64;;;11.45;79.45
44453;BME280;30155;52.164;21.236;2022-10-31T16:17:40;101041.90;;;11.11;78.78
44453;BME280;30155;52.164;21.236;2022-10-31T16:34:56;101053.90;;;11.04;80.89
44453;BME280;30155;52.164;21.236;2022-10-31T16:46:09;101052.38;;;11.16;81.36
44453;BME280;30155;52.164;21.236;2022-10-31T17:19:37;101057.70;;;11.66;83.34
44453;BME280;30155;52.164;21.236;2022-10-31T17:25:29;101054.25;;;11.69;83.45
44453;BME280;30155;52.164;21.236;2022-10-31T17:36:34;101058.69;;;11.74;83.75
44453;BME280;30155;52.164;21.236;2022-10-31T17:48:36;101068.30;;;11.77;84.01
44453;BME280;30155;52.164;21.236;2022-10-31T18:27:40;101061.36;;;11.77;84.97
44453;BME280;30155;52.164;21.236;2022-10-31T19:28:53;101036.64;;;11.79;86.71
44453;BME280;30155;52.164;21.236;2022-10-31T19:56:30;101032.83;;;11.85;87.36
44453;BME280;30155;52.164;21.236;2022-10-31T20:35:21;101021.80;;;11.98;88.02
44453;BME280;30155;52.164;21.236;2022-10-31T21:03:40;101007.89;;;11.74;87.29
44453;BME280;30155;52.164;21.236;2022-10-31T21:14:49;101006.44;;;11.65;87.26
44453;BME280;30155;52.164;21.236;2022-10-31T21:20:30;101004.64;;;11.61;87.29
44453;BME280;30155;52.164;21.236;2022-10-31T21:37:12;101007.59;;;11.56;87.42
44453;BME280;30155;52.164;21.236;2022-10-31T21:43:15;101001.95;;;11.56;87.50
44453;BME280;30155;52.164;21.236;2022-10-31T21:48:05;100996.70;;;11.55;87.53
44453;BME280;30155;52.164;21.236;2022-10-31T21:53:36;100994.97;;;11.54;87.58
44453;BME280;30155;52.164;21.236;2022-10-31T21:58:42;100991.06;;;11.54;87.58
44453;BME280;30155;52.164;21.236;2022-10-31T22:04:31;100993.67;;;11.54;87.67
44453;BME280;30155;52.164;21.236;2022-10-31T22:09:52;100983.19;;;11.51;87.65
44453;BME280;30155;52.164;21.236;2022-10-31T22:31:26;100974.52;;;11.52;87.89
44453;BME280;30155;52.164;21.236;2022-10-31T22:36:58;100978.42;;;11.52;87.99
44453;BME280;30155;52.164;21.236;2022-10-31T22:42:34;100967.62;;;11.54;88.00
44453;BME280;30155;52.164;21.236;2022-10-31T22:59:04;100967.16;;;11.53;88.08
44453;BME280;30155;52.164;21.236;2022-10-31T23:04:36;100956.69;;;11.50;88.08
44453;BME280;30155;52.164;21.236;2022-10-31T23:10:07;100955.79;;;11.48;88.15
44453;BME280;30155;52.164;21.236;2022-10-31T23:26:13;100950.92;;;11.42;88.37
44453;BME280;30155;52.164;21.236;2022-10-31T23:37:38;100955.30;;;11.43;88.60
44453;BME280;30155;52.164;21.236;2022-10-31T23:48:19;100952.69;;;11.43;88.66
44453;BME280;30155;52.164;21.236;2022-10-31T23:54:14;100948.78;;;11.43;88.68
